createdAt,value
2023-04-13T00:00:58.697Z,4.67
2023-04-13T00:03:31.066Z,4.64
2023-04-13T00:05:59.286Z,4.70
2023-04-13T00:08:27.141Z,4.76
2023-04-13T00:10:55.876Z,4.75
2023-04-13T00:13:25.113Z,4.91
2023-04-13T00:15:54.074Z,4.98
2023-04-13T00:18:22.102Z,5.15
2023-04-13T00:20:50.885Z,5.32
2023-04-13T00:23:19.662Z,5.65
2023-04-13T00:25:48.405Z,5.62
2023-04-13T00:28:18.616Z,5.84
2023-04-13T00:30:47.440Z,5.98
2023-04-13T00:33:17.232Z,5.85
2023-04-13T00:35:46.158Z,5.84
2023-04-13T00:38:15.184Z,5.82
2023-04-13T00:40:44.766Z,5.89
2023-04-13T00:43:13.521Z,5.80
2023-04-13T00:45:43.131Z,5.99
2023-04-13T00:48:13.904Z,6.10
2023-04-13T00:50:43.159Z,6.04
2023-04-13T00:53:13.937Z,5.96
2023-04-13T00:55:44.678Z,5.81
2023-04-13T00:58:14.304Z,5.75
2023-04-13T01:00:43.914Z,5.97
2023-04-13T01:03:13.413Z,6.06
2023-04-13T01:06:14.512Z,5.97
2023-04-13T01:08:59.064Z,6.35
2023-04-13T01:11:58.094Z,6.35
2023-04-13T01:14:56.265Z,6.35
2023-04-13T01:17:31.479Z,6.28
2023-04-13T01:20:16.522Z,6.07
2023-04-13T01:22:56.017Z,6.18
2023-04-13T01:26:07.262Z,6.04
2023-04-13T01:28:40.932Z,6.32
2023-04-13T01:31:12.226Z,6.34
2023-04-13T01:33:42.902Z,6.36
2023-04-13T01:36:12.798Z,6.24
2023-04-13T01:38:41.590Z,6.34
2023-04-13T01:41:11.141Z,6.36
2023-04-13T01:43:39.974Z,6.60
2023-04-13T01:46:14.416Z,6.61
2023-04-13T01:48:55.810Z,6.43
2023-04-13T01:51:32.481Z,6.37
2023-04-13T01:54:16.531Z,6.45
2023-04-13T01:56:46.171Z,6.48
2023-04-13T01:59:16.645Z,6.45
2023-04-13T02:01:46.266Z,6.43
2023-04-13T02:04:16.011Z,6.57
2023-04-13T02:06:44.880Z,6.58
2023-04-13T02:09:14.784Z,6.33
2023-04-13T02:11:44.401Z,6.40
2023-04-13T02:14:15.656Z,6.48
2023-04-13T02:16:45.241Z,6.42
2023-04-13T02:19:15.045Z,6.43
2023-04-13T02:21:45.108Z,6.35
2023-04-13T02:24:14.745Z,6.41
2023-04-13T02:26:43.874Z,6.51
2023-04-13T02:29:13.388Z,6.31
2023-04-13T02:31:44.384Z,6.37
2023-04-13T02:34:14.007Z,6.46
2023-04-13T02:36:44.306Z,6.55
2023-04-13T02:39:13.997Z,6.62
2023-04-13T02:41:43.567Z,6.39
2023-04-13T02:44:13.269Z,6.48
2023-04-13T02:46:42.031Z,6.49
2023-04-13T02:49:11.840Z,6.48
2023-04-13T02:51:41.840Z,6.70
2023-04-13T02:54:12.054Z,6.75
2023-04-13T02:56:41.672Z,6.76
2023-04-13T02:59:11.428Z,6.72
2023-04-13T03:01:40.593Z,6.42
2023-04-13T03:04:10.766Z,6.51
2023-04-13T03:06:39.542Z,6.52
2023-04-13T03:09:08.529Z,6.52
2023-04-13T03:11:37.414Z,6.60
2023-04-13T03:14:07.764Z,6.54
2023-04-13T03:16:37.283Z,6.71
2023-04-13T03:19:06.789Z,6.63
2023-04-13T03:21:37.419Z,6.62
2023-04-13T03:24:06.935Z,6.67
2023-04-13T03:26:36.610Z,6.68
2023-04-13T03:29:06.295Z,6.84
2023-04-13T03:31:35.884Z,6.74
2023-04-13T03:34:05.507Z,6.57
2023-04-13T03:36:34.332Z,6.72
2023-04-13T03:39:03.071Z,6.53
2023-04-13T03:41:32.070Z,6.57
2023-04-13T03:44:00.959Z,6.46
2023-04-13T03:46:32.228Z,6.38
2023-04-13T03:49:01.022Z,6.59
2023-04-13T03:51:29.777Z,6.50
2023-04-13T03:53:59.501Z,6.60
2023-04-13T03:56:28.928Z,6.54
2023-04-13T03:58:59.254Z,6.62
2023-04-13T04:01:28.124Z,6.68
2023-04-13T04:03:58.600Z,6.52
2023-04-13T04:06:27.797Z,6.53
2023-04-13T04:08:57.345Z,6.30
2023-04-13T04:11:26.367Z,6.31
2023-04-13T04:13:55.368Z,6.45
2023-04-13T04:16:24.178Z,6.47
2023-04-13T04:18:53.006Z,6.38
2023-04-13T04:21:22.053Z,6.49
2023-04-13T04:23:52.444Z,6.70
2023-04-13T04:26:25.967Z,6.86
2023-04-13T04:29:02.332Z,6.37
2023-04-13T04:31:36.878Z,6.68
2023-04-13T04:34:06.202Z,6.79
2023-04-13T04:36:35.015Z,6.71
2023-04-13T04:39:04.892Z,6.78
2023-04-13T04:41:38.037Z,6.76
2023-04-13T04:44:08.011Z,6.90
2023-04-13T04:46:38.910Z,6.99
2023-04-13T04:49:08.469Z,6.63
2023-04-13T04:51:38.057Z,7.03
2023-04-13T04:54:08.414Z,8.12
2023-04-13T04:56:37.231Z,7.76
2023-04-13T04:59:06.054Z,7.62
2023-04-13T05:01:35.737Z,7.54
2023-04-13T05:04:04.794Z,7.48
2023-04-13T05:06:33.962Z,7.45
2023-04-13T05:09:07.211Z,7.29
2023-04-13T05:11:36.825Z,7.23
2023-04-13T05:14:06.398Z,7.46
2023-04-13T05:16:35.224Z,7.55
2023-04-13T05:19:05.800Z,7.40
2023-04-13T05:21:35.672Z,7.41
2023-04-13T05:24:04.754Z,7.56
2023-04-13T05:26:34.897Z,7.52
2023-04-13T05:29:05.569Z,7.63
2023-04-13T05:31:34.923Z,7.61
2023-04-13T05:34:03.755Z,7.68
2023-04-13T05:36:32.618Z,7.94
2023-04-13T05:39:03.145Z,7.83
2023-04-13T05:41:31.860Z,7.77
2023-04-13T05:44:01.120Z,8.48
2023-04-13T05:46:29.879Z,8.45
2023-04-13T05:49:00.099Z,8.75
2023-04-13T05:51:33.222Z,9.04
2023-04-13T05:54:03.123Z,8.95
2023-04-13T05:56:34.483Z,9.22
2023-04-13T05:59:04.580Z,9.62
2023-04-13T06:01:33.860Z,9.94
2023-04-13T06:04:04.111Z,9.86
2023-04-13T06:06:36.190Z,10.45
2023-04-13T06:09:06.274Z,10.53
2023-04-13T06:11:35.910Z,10.48
2023-04-13T06:14:05.708Z,10.19
2023-04-13T06:16:34.619Z,11.62
2023-04-13T06:19:04.206Z,11.34
2023-04-13T06:21:32.906Z,10.82
2023-04-13T06:24:02.515Z,10.46
2023-04-13T06:26:31.177Z,11.06
2023-04-13T06:29:01.024Z,10.87
2023-04-13T06:31:30.081Z,10.97
2023-04-13T06:33:59.648Z,10.43
2023-04-13T06:36:28.409Z,10.96
2023-04-13T06:38:58.176Z,11.08
2023-04-13T06:41:27.629Z,10.66
2023-04-13T06:43:57.372Z,10.61
2023-04-13T06:46:27.899Z,11.13
2023-04-13T06:48:57.254Z,11.94
2023-04-13T06:51:27.369Z,11.73
2023-04-13T06:53:56.162Z,11.97
2023-04-13T06:56:25.864Z,12.31
2023-04-13T06:59:01.550Z,12.47
2023-04-13T07:01:31.836Z,11.84
2023-04-13T07:04:02.938Z,12.13
2023-04-13T07:06:32.342Z,12.88
2023-04-13T07:09:01.468Z,13.12
2023-04-13T07:11:31.433Z,12.87
2023-04-13T07:14:00.135Z,13.27
2023-04-13T07:16:29.888Z,12.54
2023-04-13T07:19:01.230Z,12.30
2023-04-13T07:21:33.506Z,12.38
2023-04-13T07:24:02.306Z,12.08
2023-04-13T07:26:30.999Z,12.69
2023-04-13T07:28:59.947Z,12.69
2023-04-13T07:31:28.952Z,12.93
2023-04-13T07:33:58.565Z,12.82
2023-04-13T07:36:28.767Z,13.20
2023-04-13T07:38:57.928Z,13.15
2023-04-13T07:41:27.631Z,13.96
2023-04-13T07:43:56.558Z,13.82
2023-04-13T07:46:27.326Z,14.49
2023-04-13T07:48:56.134Z,14.20
2023-04-13T07:51:24.839Z,14.19
2023-04-13T07:53:53.068Z,14.38
2023-04-13T07:56:22.841Z,14.37
2023-04-13T07:58:51.626Z,14.45
2023-04-13T08:01:21.734Z,14.69
2023-04-13T08:03:51.584Z,14.53
2023-04-13T08:06:23.626Z,14.95
2023-04-13T08:08:54.177Z,14.80
2023-04-13T08:11:22.823Z,15.41
2023-04-13T08:13:51.506Z,14.94
2023-04-13T08:16:20.415Z,16.12
2023-04-13T08:18:49.922Z,16.15
2023-04-13T08:21:19.218Z,16.82
2023-04-13T08:23:47.941Z,16.41
2023-04-13T08:26:21.670Z,15.56
2023-04-13T08:28:53.224Z,15.68
2023-04-13T08:31:21.996Z,15.67
2023-04-13T08:33:50.867Z,15.25
2023-04-13T08:36:18.712Z,15.83
2023-04-13T08:38:47.789Z,15.52
2023-04-13T08:41:19.149Z,16.73
2023-04-13T08:43:48.035Z,16.59
2023-04-13T08:46:21.448Z,17.56
2023-04-13T08:48:54.513Z,17.85
2023-04-13T08:51:23.868Z,17.31
2023-04-13T08:53:54.000Z,18.69
2023-04-13T08:56:31.076Z,18.29
2023-04-13T08:59:07.759Z,17.60
2023-04-13T09:01:39.423Z,16.49
2023-04-13T09:04:11.620Z,17.26
2023-04-13T09:06:43.602Z,18.17
2023-04-13T09:09:17.254Z,18.14
2023-04-13T09:11:47.129Z,18.28
2023-04-13T09:14:22.546Z,18.74
2023-04-13T09:16:52.272Z,18.82
2023-04-13T09:19:32.751Z,19.16
2023-04-13T09:22:14.474Z,18.78
2023-04-13T09:24:43.648Z,19.28
2023-04-13T09:27:24.499Z,19.71
2023-04-13T09:29:56.595Z,19.50
2023-04-13T09:32:28.760Z,19.49
2023-04-13T09:35:08.438Z,19.42
2023-04-13T09:37:42.909Z,20.06
2023-04-13T09:40:19.097Z,20.27
2023-04-13T09:43:02.119Z,19.87
2023-04-13T09:45:46.569Z,19.63
2023-04-13T09:48:23.434Z,20.93
2023-04-13T09:51:06.940Z,20.96
2023-04-13T09:53:47.673Z,19.72
2023-04-13T09:56:17.739Z,19.89
2023-04-13T09:58:49.016Z,21.37
2023-04-13T10:01:18.557Z,21.07
2023-04-13T10:03:48.314Z,19.59
2023-04-13T10:06:17.942Z,20.06
2023-04-13T10:08:46.664Z,19.81
2023-04-13T10:11:16.948Z,19.97
2023-04-13T10:14:02.908Z,20.28
2023-04-13T10:17:05.874Z,19.91
2023-04-13T10:19:52.329Z,20.00
2023-04-13T10:22:24.255Z,18.93
2023-04-13T10:24:53.841Z,18.97
2023-04-13T10:27:23.698Z,19.05
2023-04-13T10:29:53.742Z,19.77
2023-04-13T10:32:28.018Z,19.94
2023-04-13T10:34:57.192Z,19.45
2023-04-13T10:37:29.300Z,20.04
2023-04-13T10:40:09.271Z,20.21
2023-04-13T10:45:28.832Z,19.26
2023-04-13T10:47:58.854Z,19.58
2023-04-13T10:50:27.947Z,19.65
2023-04-13T10:53:07.867Z,19.90
2023-04-13T10:55:37.488Z,19.87
2023-04-13T10:58:17.668Z,19.45
2023-04-13T11:00:48.326Z,19.67
2023-04-13T11:03:19.464Z,19.37
2023-04-13T11:06:00.306Z,19.76
2023-04-13T11:08:28.340Z,20.15
2023-04-13T11:10:57.992Z,19.89
2023-04-13T11:13:27.150Z,19.95
2023-04-13T11:16:06.190Z,20.32
2023-04-13T11:18:35.856Z,20.37
2023-04-13T11:21:07.909Z,19.89
2023-04-13T11:23:38.594Z,19.84
2023-04-13T11:26:07.262Z,19.88
2023-04-13T11:28:47.265Z,19.39
2023-04-13T11:31:15.044Z,20.37
2023-04-13T11:33:44.729Z,20.25
2023-04-13T11:36:14.534Z,20.14
2023-04-13T11:38:44.180Z,19.57
2023-04-13T11:41:16.968Z,19.80
2023-04-13T11:43:48.585Z,19.28
2023-04-13T11:46:29.653Z,19.32
2023-04-13T11:48:59.858Z,19.69
2023-04-13T11:51:29.810Z,19.57
2023-04-13T11:54:01.239Z,19.55
2023-04-13T11:56:31.429Z,19.48
2023-04-13T11:59:01.162Z,19.49
2023-04-13T12:01:34.485Z,19.02
2023-04-13T12:04:15.406Z,18.59
2023-04-13T12:06:49.963Z,19.14
2023-04-13T12:09:21.110Z,18.55
2023-04-13T12:12:15.960Z,18.56
2023-04-13T12:19:57.536Z,18.77
2023-04-13T12:22:52.251Z,18.58
2023-04-13T12:28:01.123Z,18.76
2023-04-13T12:30:30.761Z,18.69
2023-04-13T12:33:01.031Z,18.55
2023-04-13T12:35:30.618Z,18.85
2023-04-13T12:38:01.936Z,18.91
2023-04-13T12:40:34.200Z,18.76
2023-04-13T12:43:03.122Z,18.71
2023-04-13T12:45:32.732Z,18.91
2023-04-13T12:48:02.295Z,18.91
2023-04-13T12:50:33.267Z,18.69
2023-04-13T12:53:02.812Z,19.06
2023-04-13T12:55:30.918Z,18.69
2023-04-13T12:57:59.639Z,19.26
2023-04-13T13:00:29.149Z,19.27
2023-04-13T13:03:12.418Z,19.21
2023-04-13T13:05:43.105Z,18.50
2023-04-13T13:08:12.747Z,18.61
2023-04-13T13:10:42.400Z,18.97
2023-04-13T13:13:10.223Z,19.13
2023-04-13T13:15:38.016Z,19.05
2023-04-13T13:18:09.164Z,18.71
2023-04-13T13:20:41.543Z,19.10
2023-04-13T13:23:13.840Z,19.12
2023-04-13T13:25:57.056Z,19.26
2023-04-13T13:28:32.776Z,19.11
2023-04-13T13:31:02.362Z,19.29
2023-04-13T13:33:32.756Z,19.32
2023-04-13T13:36:00.720Z,19.60
2023-04-13T13:38:29.351Z,19.33
2023-04-13T13:40:57.149Z,19.22
2023-04-13T13:43:25.004Z,18.92
2023-04-13T13:45:53.526Z,19.01
2023-04-13T13:48:22.173Z,18.90
2023-04-13T13:50:50.438Z,18.55
2023-04-13T13:53:18.252Z,18.50
2023-04-13T13:55:46.170Z,18.43
2023-04-13T13:58:15.829Z,18.16
2023-04-13T14:00:45.614Z,18.31
2023-04-13T14:03:16.724Z,18.37
2023-04-13T14:05:44.728Z,18.26
2023-04-13T14:08:12.589Z,18.18
2023-04-13T14:10:47.713Z,18.67
2023-04-13T14:13:17.784Z,18.51
2023-04-13T14:15:45.650Z,18.38
2023-04-13T14:18:13.432Z,18.58
2023-04-13T14:20:41.237Z,18.83
2023-04-13T14:23:09.960Z,18.36
2023-04-13T14:25:41.369Z,18.41
2023-04-13T14:28:09.643Z,18.42
2023-04-13T14:30:40.781Z,18.81
2023-04-13T14:33:08.791Z,19.04
2023-04-13T14:35:39.137Z,18.35
2023-04-13T14:38:08.694Z,18.49
2023-04-13T14:40:38.521Z,18.70
2023-04-13T14:43:06.967Z,18.55
2023-04-13T14:45:38.295Z,18.46
2023-04-13T14:48:08.027Z,18.35
2023-04-13T14:50:40.800Z,18.25
2023-04-13T14:53:09.615Z,18.15
2023-04-13T14:55:37.447Z,18.23
2023-04-13T14:58:05.581Z,18.33
2023-04-13T15:00:39.429Z,17.81
2023-04-13T15:03:13.654Z,17.80
2023-04-13T15:05:48.644Z,17.88
2023-04-13T15:08:17.036Z,17.73
2023-04-13T15:10:47.296Z,17.71
2023-04-13T15:13:16.826Z,17.66
2023-04-13T15:15:45.001Z,17.72
2023-04-13T15:18:13.721Z,17.86
2023-04-13T15:20:41.543Z,17.52
2023-04-13T15:23:09.319Z,17.40
2023-04-13T15:25:42.094Z,17.29
2023-04-13T15:28:10.821Z,17.41
2023-04-13T15:30:41.422Z,17.07
2023-04-13T15:33:10.155Z,17.18
2023-04-13T15:35:38.917Z,17.07
2023-04-13T15:38:06.740Z,17.00
2023-04-13T15:40:35.207Z,16.99
2023-04-13T15:43:05.977Z,16.91
2023-04-13T15:46:15.937Z,16.80
2023-04-13T15:49:21.190Z,16.62
2023-04-13T15:52:02.761Z,16.77
2023-04-13T15:54:44.267Z,16.74
2023-04-13T15:57:38.927Z,16.71
2023-04-13T16:00:18.477Z,16.65
2023-04-13T16:03:34.013Z,16.53
2023-04-13T16:06:55.762Z,16.52
2023-04-13T16:10:05.943Z,16.32
2023-04-13T16:13:50.096Z,16.43
2023-04-13T16:16:52.008Z,16.39
2023-04-13T16:20:03.379Z,16.37
2023-04-13T16:23:03.203Z,16.25
2023-04-13T16:26:13.962Z,16.34
2023-04-13T16:28:53.148Z,16.25
2023-04-13T16:32:05.496Z,16.37
2023-04-13T16:35:33.547Z,16.38
2023-04-13T16:38:26.134Z,16.12
2023-04-13T16:41:09.723Z,16.00
2023-04-13T16:43:49.069Z,15.87
2023-04-13T16:46:54.438Z,15.64
2023-04-13T16:49:50.558Z,15.51
2023-04-13T16:52:23.272Z,15.53
2023-04-13T16:55:29.841Z,15.42
2023-04-13T16:58:08.737Z,15.54
2023-04-13T17:01:20.500Z,15.39
2023-04-13T17:03:57.499Z,15.45
2023-04-13T17:06:35.517Z,15.19
2023-04-13T17:09:17.259Z,15.27
2023-04-13T17:11:51.973Z,15.42
2023-04-13T17:15:18.460Z,15.37
2023-04-13T17:18:19.241Z,15.06
2023-04-13T17:24:27.035Z,15.09
2023-04-13T17:26:55.112Z,15.03
2023-04-13T17:29:22.980Z,14.94
2023-04-13T17:31:52.037Z,14.86
2023-04-13T17:34:19.950Z,14.96
2023-04-13T17:36:49.553Z,14.98
2023-04-13T17:39:18.296Z,14.88
2023-04-13T17:41:46.138Z,14.78
2023-04-13T17:44:15.775Z,14.56
2023-04-13T17:46:44.437Z,14.66
2023-04-13T17:49:13.466Z,14.75
2023-04-13T17:51:47.604Z,14.49
2023-04-13T17:54:16.386Z,14.71
2023-04-13T17:56:46.190Z,14.66
2023-04-13T17:59:15.165Z,14.67
2023-04-13T18:01:45.195Z,14.69
2023-04-13T18:04:15.386Z,14.71
2023-04-13T18:06:45.584Z,14.71
2023-04-13T18:09:14.520Z,14.71
2023-04-13T18:11:43.340Z,14.52
2023-04-13T18:14:15.392Z,14.81
2023-04-13T18:16:46.126Z,14.79
2023-04-13T18:19:16.447Z,14.62
2023-04-13T18:21:45.048Z,14.72
2023-04-13T18:24:13.753Z,14.83
2023-04-13T18:26:43.344Z,14.57
2023-04-13T18:29:13.881Z,14.66
2023-04-13T18:31:42.627Z,14.49
2023-04-13T18:34:14.510Z,14.71
2023-04-13T18:36:42.403Z,14.78
2023-04-13T18:39:11.044Z,14.56
2023-04-13T18:41:41.032Z,14.59
2023-04-13T18:44:10.204Z,14.50
2023-04-13T18:46:38.120Z,14.42
2023-04-13T18:49:06.850Z,14.38
2023-04-13T18:51:34.664Z,14.25
2023-04-13T18:54:05.020Z,14.21
2023-04-13T18:56:32.994Z,14.08
2023-04-13T18:59:03.842Z,13.99
2023-04-13T19:01:33.700Z,13.89
2023-04-13T19:04:03.229Z,13.84
2023-04-13T19:06:32.172Z,13.92
2023-04-13T19:09:00.844Z,13.93
2023-04-13T19:11:28.682Z,13.90
2023-04-13T19:16:47.045Z,13.95
2023-04-13T19:19:16.307Z,13.79
2023-04-13T19:21:44.124Z,13.83
2023-04-13T19:24:13.527Z,13.67
2023-04-13T19:26:44.836Z,13.72
2023-04-13T19:29:15.746Z,13.66
2023-04-13T19:31:45.982Z,13.69
2023-04-13T19:34:14.709Z,13.56
2023-04-13T19:36:42.893Z,13.44
2023-04-13T19:39:11.166Z,13.42
2023-04-13T19:41:41.454Z,13.51
2023-04-13T19:44:09.345Z,13.45
2023-04-13T19:46:37.801Z,13.33
2023-04-13T19:49:08.133Z,13.41
2023-04-13T19:51:36.821Z,13.34
2023-04-13T19:54:06.238Z,13.37
2023-04-13T19:56:37.399Z,13.38
2023-04-13T19:59:06.868Z,13.33
2023-04-13T20:01:35.143Z,13.33
2023-04-13T20:04:05.013Z,13.38
2023-04-13T20:06:34.282Z,13.35
2023-04-13T20:09:14.398Z,13.34
2023-04-13T20:11:43.023Z,13.24
2023-04-13T20:14:13.922Z,13.13
2023-04-13T20:16:41.908Z,13.25
2023-04-13T20:19:10.264Z,13.13
2023-04-13T20:21:42.186Z,13.10
2023-04-13T20:24:10.368Z,13.12
2023-04-13T20:26:38.238Z,13.11
2023-04-13T20:29:06.978Z,13.04
2023-04-13T20:31:35.172Z,13.07
2023-04-13T20:34:04.559Z,12.98
2023-04-13T20:36:34.277Z,12.89
2023-04-13T20:39:02.239Z,12.88
2023-04-13T20:41:32.534Z,12.88
2023-04-13T20:44:03.988Z,12.89
2023-04-13T20:46:36.187Z,12.84
2023-04-13T20:49:05.902Z,12.81
2023-04-13T20:51:34.602Z,12.76
2023-04-13T20:54:05.625Z,12.77
2023-04-13T20:56:33.639Z,12.71
2023-04-13T20:59:02.792Z,12.69
2023-04-13T21:01:32.010Z,12.60
2023-04-13T21:04:02.171Z,12.61
2023-04-13T21:06:30.297Z,12.55
2023-04-13T21:08:59.608Z,12.56
2023-04-13T21:11:27.737Z,12.48
2023-04-13T21:13:56.047Z,12.41
2023-04-13T21:16:26.088Z,12.38
2023-04-13T21:18:55.020Z,12.34
2023-04-13T21:21:23.732Z,12.33
2023-04-13T21:23:52.981Z,12.33
2023-04-13T21:26:24.278Z,12.27
2023-04-13T21:28:53.481Z,12.23
2023-04-13T21:31:22.038Z,12.21
2023-04-13T21:33:49.906Z,12.11
2023-04-13T21:38:49.709Z,11.98
2023-04-13T21:41:22.012Z,11.86
2023-04-13T21:43:49.839Z,11.94
2023-04-13T21:46:18.369Z,11.94
2023-04-13T21:48:47.120Z,11.90
2023-04-13T21:51:14.931Z,11.88
2023-04-13T21:53:43.642Z,11.82
2023-04-13T21:56:11.407Z,11.84
2023-04-13T21:58:47.080Z,11.83
2023-04-13T22:01:15.885Z,11.77
2023-04-13T22:03:48.095Z,11.84
2023-04-13T22:06:16.675Z,11.81
2023-04-13T22:08:44.529Z,11.83
2023-04-13T22:11:13.439Z,11.80
2023-04-13T22:13:42.517Z,11.76
2023-04-13T22:16:11.502Z,11.81
2023-04-13T22:18:40.247Z,11.77
2023-04-13T22:21:09.056Z,11.83
2023-04-13T22:23:37.797Z,11.76
2023-04-13T22:26:05.978Z,11.76
2023-04-13T22:28:33.791Z,11.78
2023-04-13T22:31:14.361Z,11.77
2023-04-13T22:33:42.444Z,11.68
2023-04-13T22:36:21.643Z,11.69
2023-04-13T22:38:51.050Z,11.65
2023-04-13T22:41:18.892Z,11.62
2023-04-13T22:43:48.441Z,11.60
2023-04-13T22:46:17.194Z,11.61
2023-04-13T22:48:45.038Z,11.56
2023-04-13T22:51:13.744Z,11.58
2023-04-13T22:53:42.466Z,11.57
2023-04-13T22:56:10.269Z,11.51
2023-04-13T22:58:38.927Z,11.51
2023-04-13T23:01:07.573Z,11.49
2023-04-13T23:03:35.421Z,11.44
2023-04-13T23:06:06.516Z,11.41
2023-04-13T23:08:35.231Z,11.39
2023-04-13T23:11:10.862Z,11.43
2023-04-13T23:13:38.719Z,11.37
2023-04-13T23:16:07.329Z,11.43
2023-04-13T23:18:35.241Z,11.35
2023-04-13T23:21:13.783Z,11.40
2023-04-13T23:23:41.570Z,11.30
2023-04-13T23:26:10.333Z,11.32
2023-04-13T23:28:38.211Z,11.30
2023-04-13T23:31:08.027Z,11.30
2023-04-13T23:33:36.744Z,11.33
2023-04-13T23:36:05.380Z,11.21
2023-04-13T23:38:34.089Z,11.29
2023-04-13T23:41:02.803Z,11.28
2023-04-13T23:43:31.588Z,11.28
2023-04-13T23:45:59.480Z,11.23
2023-04-13T23:48:27.424Z,11.21
2023-04-13T23:50:55.618Z,11.17
2023-04-13T23:53:23.873Z,11.16
2023-04-13T23:55:51.694Z,11.17
2023-04-13T23:58:20.294Z,11.18
